sensor_id;sensor_type;location;lat;lon;timestamp;temperature;humidity
60868;DHT22;46702;48.370;10.794;2023-07-30T00:01:56;17.90;99.90
60868;DHT22;46702;48.370;10.794;2023-07-30T00:04:21;17.80;99.90
60868;DHT22;46702;48.370;10.794;2023-07-30T00:06:47;17.80;99.90
60868;DHT22;46702;48.370;10.794;2023-07-30T00:09:13;17.80;99.90
60868;DHT22;46702;48.370;10.794;2023-07-30T00:11:38;17.80;99.90
60868;DHT22;46702;48.370;10.794;2023-07-30T00:14:04;17.90;99.90
60868;DHT22;46702;48.370;10.794;2023-07-30T00:16:30;17.90;99.90
60868;DHT22;46702;48.370;10.794;2023-07-30T00:18:55;17.80;99.90
60868;DHT22;46702;48.370;10.794;2023-07-30T00:21:22;17.80;99.90
60868;DHT22;46702;48.370;10.794;2023-07-30T00:23:47;17.80;99.90
60868;DHT22;46702;48.370;10.794;2023-07-30T00:26:13;17.70;99.90
60868;DHT22;46702;48.370;10.794;2023-07-30T00:28:39;17.70;99.90
60868;DHT22;46702;48.370;10.794;2023-07-30T00:31:04;17.70;99.90
60868;DHT22;46702;48.370;10.794;2023-07-30T00:33:30;17.70;99.90
60868;DHT22;46702;48.370;10.794;2023-07-30T00:35:55;17.70;99.90
60868;DHT22;46702;48.370;10.794;2023-07-30T00:38:21;17.80;99.90
60868;DHT22;46702;48.370;10.794;2023-07-30T00:40:47;17.70;99.90
60868;DHT22;46702;48.370;10.794;2023-07-30T00:43:12;17.70;99.90
60868;DHT22;46702;48.370;10.794;2023-07-30T00:45:41;17.70;99.90
60868;DHT22;46702;48.370;10.794;2023-07-30T00:48:08;17.70;99.90
60868;DHT22;46702;48.370;10.794;2023-07-30T00:50:34;17.70;99.90
60868;DHT22;46702;48.370;10.794;2023-07-30T00:52:59;17.60;99.90
60868;DHT22;46702;48.370;10.794;2023-07-30T00:55:25;17.60;99.90
60868;DHT22;46702;48.370;10.794;2023-07-30T00:57:51;17.60;99.90
60868;DHT22;46702;48.370;10.794;2023-07-30T01:00:17;17.60;99.90
60868;DHT22;46702;48.370;10.794;2023-07-30T01:02:44;17.70;99.90
60868;DHT22;46702;48.370;10.794;2023-07-30T01:05:09;17.70;99.90
60868;DHT22;46702;48.370;10.794;2023-07-30T01:07:35;17.70;99.90
60868;DHT22;46702;48.370;10.794;2023-07-30T01:10:01;17.60;99.90
60868;DHT22;46702;48.370;10.794;2023-07-30T01:12:29;17.60;99.90
60868;DHT22;46702;48.370;10.794;2023-07-30T01:14:56;17.60;99.90
60868;DHT22;46702;48.370;10.794;2023-07-30T01:17:22;17.60;99.90
60868;DHT22;46702;48.370;10.794;2023-07-30T01:19:48;17.60;99.90
60868;DHT22;46702;48.370;10.794;2023-07-30T01:22:20;17.60;99.90
60868;DHT22;46702;48.370;10.794;2023-07-30T01:24:46;17.60;99.90
60868;DHT22;46702;48.370;10.794;2023-07-30T01:27:28;17.50;99.90
60868;DHT22;46702;48.370;10.794;2023-07-30T01:30:14;17.50;99.90
60868;DHT22;46702;48.370;10.794;2023-07-30T01:32:41;17.50;99.90
60868;DHT22;46702;48.370;10.794;2023-07-30T01:35:08;17.50;99.90
60868;DHT22;46702;48.370;10.794;2023-07-30T01:37:34;17.50;99.90
60868;DHT22;46702;48.370;10.794;2023-07-30T01:40:00;17.50;99.90
60868;DHT22;46702;48.370;10.794;2023-07-30T01:42:30;17.50;99.90
60868;DHT22;46702;48.370;10.794;2023-07-30T01:44:56;17.50;99.90
60868;DHT22;46702;48.370;10.794;2023-07-30T01:47:22;17.50;99.90
60868;DHT22;46702;48.370;10.794;2023-07-30T01:49:47;17.50;99.90
60868;DHT22;46702;48.370;10.794;2023-07-30T01:52:13;17.50;99.90
60868;DHT22;46702;48.370;10.794;2023-07-30T01:54:39;17.50;99.90
60868;DHT22;46702;48.370;10.794;2023-07-30T01:57:04;17.50;99.90
60868;DHT22;46702;48.370;10.794;2023-07-30T01:59:30;17.50;99.90
60868;DHT22;46702;48.370;10.794;2023-07-30T02:01:55;17.40;99.90
60868;DHT22;46702;48.370;10.794;2023-07-30T02:04:21;17.40;99.90
60868;DHT22;46702;48.370;10.794;2023-07-30T02:06:47;17.50;99.90
60868;DHT22;46702;48.370;10.794;2023-07-30T02:09:12;17.40;99.90
60868;DHT22;46702;48.370;10.794;2023-07-30T02:11:38;17.50;99.90
60868;DHT22;46702;48.370;10.794;2023-07-30T02:14:03;17.50;99.90
60868;DHT22;46702;48.370;10.794;2023-07-30T02:16:29;17.50;99.90
60868;DHT22;46702;48.370;10.794;2023-07-30T02:18:54;17.50;99.90
60868;DHT22;46702;48.370;10.794;2023-07-30T02:21:20;17.50;99.90
60868;DHT22;46702;48.370;10.794;2023-07-30T02:23:46;17.40;99.90
60868;DHT22;46702;48.370;10.794;2023-07-30T02:26:11;17.40;99.90
60868;DHT22;46702;48.370;10.794;2023-07-30T02:28:37;17.40;99.90
60868;DHT22;46702;48.370;10.794;2023-07-30T02:31:02;17.40;99.90
60868;DHT22;46702;48.370;10.794;2023-07-30T02:33:28;17.40;99.90
60868;DHT22;46702;48.370;10.794;2023-07-30T02:35:54;17.40;99.90
60868;DHT22;46702;48.370;10.794;2023-07-30T02:38:19;17.30;99.90
60868;DHT22;46702;48.370;10.794;2023-07-30T02:40:45;17.40;99.90
60868;DHT22;46702;48.370;10.794;2023-07-30T02:43:10;17.40;99.90
60868;DHT22;46702;48.370;10.794;2023-07-30T02:45:37;17.30;99.90
60868;DHT22;46702;48.370;10.794;2023-07-30T02:48:02;17.30;99.90
60868;DHT22;46702;48.370;10.794;2023-07-30T02:50:28;17.30;99.90
60868;DHT22;46702;48.370;10.794;2023-07-30T02:52:53;17.40;99.90
60868;DHT22;46702;48.370;10.794;2023-07-30T02:55:19;17.30;99.90
60868;DHT22;46702;48.370;10.794;2023-07-30T02:57:45;17.40;99.90
60868;DHT22;46702;48.370;10.794;2023-07-30T03:00:10;17.40;99.90
60868;DHT22;46702;48.370;10.794;2023-07-30T03:02:36;17.30;99.90
60868;DHT22;46702;48.370;10.794;2023-07-30T03:05:02;17.20;99.90
60868;DHT22;46702;48.370;10.794;2023-07-30T03:07:28;17.20;99.90
60868;DHT22;46702;48.370;10.794;2023-07-30T03:09:53;17.20;99.90
60868;DHT22;46702;48.370;10.794;2023-07-30T03:12:19;17.20;99.90
60868;DHT22;46702;48.370;10.794;2023-07-30T03:14:44;17.20;99.90
60868;DHT22;46702;48.370;10.794;2023-07-30T03:17:10;17.20;99.90
60868;DHT22;46702;48.370;10.794;2023-07-30T03:19:35;17.10;99.90
60868;DHT22;46702;48.370;10.794;2023-07-30T03:22:01;17.10;99.90
60868;DHT22;46702;48.370;10.794;2023-07-30T03:24:27;17.10;99.90
60868;DHT22;46702;48.370;10.794;2023-07-30T03:26:52;17.00;99.90
60868;DHT22;46702;48.370;10.794;2023-07-30T03:29:18;17.00;99.90
60868;DHT22;46702;48.370;10.794;2023-07-30T03:31:43;16.90;99.90
60868;DHT22;46702;48.370;10.794;2023-07-30T03:34:09;16.90;99.90
60868;DHT22;46702;48.370;10.794;2023-07-30T03:36:34;16.90;99.90
60868;DHT22;46702;48.370;10.794;2023-07-30T03:39:00;16.80;99.90
60868;DHT22;46702;48.370;10.794;2023-07-30T03:41:26;16.70;99.90
60868;DHT22;46702;48.370;10.794;2023-07-30T03:43:51;16.50;99.90
60868;DHT22;46702;48.370;10.794;2023-07-30T03:46:17;16.60;99.90
60868;DHT22;46702;48.370;10.794;2023-07-30T03:48:42;16.40;99.90
60868;DHT22;46702;48.370;10.794;2023-07-30T03:51:08;16.40;99.90
60868;DHT22;46702;48.370;10.794;2023-07-30T03:53:34;16.40;99.90
60868;DHT22;46702;48.370;10.794;2023-07-30T03:56:00;16.30;99.90
60868;DHT22;46702;48.370;10.794;2023-07-30T03:58:25;16.30;99.90
60868;DHT22;46702;48.370;10.794;2023-07-30T04:00:51;16.30;99.90
60868;DHT22;46702;48.370;10.794;2023-07-30T04:03:16;16.30;99.90
60868;DHT22;46702;48.370;10.794;2023-07-30T04:05:42;16.30;99.90
60868;DHT22;46702;48.370;10.794;2023-07-30T04:08:07;16.30;99.90
60868;DHT22;46702;48.370;10.794;2023-07-30T04:10:33;16.30;99.90
60868;DHT22;46702;48.370;10.794;2023-07-30T04:12:59;16.30;99.90
60868;DHT22;46702;48.370;10.794;2023-07-30T04:15:25;16.30;99.90
60868;DHT22;46702;48.370;10.794;2023-07-30T04:17:50;16.30;99.90
60868;DHT22;46702;48.370;10.794;2023-07-30T04:20:16;16.30;99.90
60868;DHT22;46702;48.370;10.794;2023-07-30T04:22:43;16.40;99.90
60868;DHT22;46702;48.370;10.794;2023-07-30T04:25:09;16.40;99.90
60868;DHT22;46702;48.370;10.794;2023-07-30T04:27:36;16.30;99.90
60868;DHT22;46702;48.370;10.794;2023-07-30T04:30:02;16.40;99.90
60868;DHT22;46702;48.370;10.794;2023-07-30T04:32:28;16.30;99.90
60868;DHT22;46702;48.370;10.794;2023-07-30T04:34:53;16.30;99.90
60868;DHT22;46702;48.370;10.794;2023-07-30T04:37:19;16.40;99.90
60868;DHT22;46702;48.370;10.794;2023-07-30T04:39:44;16.40;99.90
60868;DHT22;46702;48.370;10.794;2023-07-30T04:42:10;16.40;99.90
60868;DHT22;46702;48.370;10.794;2023-07-30T04:44:35;16.50;99.90
60868;DHT22;46702;48.370;10.794;2023-07-30T04:47:01;16.60;99.90
60868;DHT22;46702;48.370;10.794;2023-07-30T04:49:26;16.70;99.90
60868;DHT22;46702;48.370;10.794;2023-07-30T04:51:52;16.80;99.90
60868;DHT22;46702;48.370;10.794;2023-07-30T04:54:17;16.90;99.90
60868;DHT22;46702;48.370;10.794;2023-07-30T04:56:43;17.00;99.90
60868;DHT22;46702;48.370;10.794;2023-07-30T04:59:09;17.00;99.90
60868;DHT22;46702;48.370;10.794;2023-07-30T05:01:34;17.10;99.90
60868;DHT22;46702;48.370;10.794;2023-07-30T05:04:00;17.10;99.90
60868;DHT22;46702;48.370;10.794;2023-07-30T05:06:25;17.20;99.90
60868;DHT22;46702;48.370;10.794;2023-07-30T05:08:51;17.20;99.90
60868;DHT22;46702;48.370;10.794;2023-07-30T05:11:16;17.30;99.90
60868;DHT22;46702;48.370;10.794;2023-07-30T05:13:42;17.40;99.90
60868;DHT22;46702;48.370;10.794;2023-07-30T05:16:08;17.50;99.90
60868;DHT22;46702;48.370;10.794;2023-07-30T05:18:33;17.50;99.90
60868;DHT22;46702;48.370;10.794;2023-07-30T05:20:59;17.60;99.90
60868;DHT22;46702;48.370;10.794;2023-07-30T05:23:25;17.60;99.90
60868;DHT22;46702;48.370;10.794;2023-07-30T05:25:50;17.70;99.90
60868;DHT22;46702;48.370;10.794;2023-07-30T05:28:16;17.80;99.90
60868;DHT22;46702;48.370;10.794;2023-07-30T05:30:42;17.80;99.90
60868;DHT22;46702;48.370;10.794;2023-07-30T05:33:07;17.90;99.90
60868;DHT22;46702;48.370;10.794;2023-07-30T05:35:33;18.00;99.90
60868;DHT22;46702;48.370;10.794;2023-07-30T05:37:59;17.90;99.90
60868;DHT22;46702;48.370;10.794;2023-07-30T05:40:24;18.10;99.90
60868;DHT22;46702;48.370;10.794;2023-07-30T05:42:50;18.20;99.90
60868;DHT22;46702;48.370;10.794;2023-07-30T05:45:16;18.20;99.90
60868;DHT22;46702;48.370;10.794;2023-07-30T05:47:41;18.30;99.90
60868;DHT22;46702;48.370;10.794;2023-07-30T05:50:07;18.40;99.90
60868;DHT22;46702;48.370;10.794;2023-07-30T05:52:33;18.40;99.90
60868;DHT22;46702;48.370;10.794;2023-07-30T05:54:59;18.50;99.90
60868;DHT22;46702;48.370;10.794;2023-07-30T05:57:25;18.50;99.90
60868;DHT22;46702;48.370;10.794;2023-07-30T05:59:51;18.60;99.90
60868;DHT22;46702;48.370;10.794;2023-07-30T06:02:16;18.70;99.90
60868;DHT22;46702;48.370;10.794;2023-07-30T06:04:42;19.00;99.90
60868;DHT22;46702;48.370;10.794;2023-07-30T06:07:08;19.00;99.90
60868;DHT22;46702;48.370;10.794;2023-07-30T06:09:34;19.10;99.90
60868;DHT22;46702;48.370;10.794;2023-07-30T06:11:59;19.20;99.90
60868;DHT22;46702;48.370;10.794;2023-07-30T06:14:26;19.40;99.90
60868;DHT22;46702;48.370;10.794;2023-07-30T06:16:52;19.40;99.90
60868;DHT22;46702;48.370;10.794;2023-07-30T06:19:18;19.40;99.90
60868;DHT22;46702;48.370;10.794;2023-07-30T06:21:44;19.40;99.90
60868;DHT22;46702;48.370;10.794;2023-07-30T06:24:09;19.40;99.90
60868;DHT22;46702;48.370;10.794;2023-07-30T06:26:35;19.50;99.90
60868;DHT22;46702;48.370;10.794;2023-07-30T06:29:01;19.50;99.90
60868;DHT22;46702;48.370;10.794;2023-07-30T06:31:26;19.50;99.90
60868;DHT22;46702;48.370;10.794;2023-07-30T06:33:52;19.60;99.90
60868;DHT22;46702;48.370;10.794;2023-07-30T06:36:18;19.80;99.90
60868;DHT22;46702;48.370;10.794;2023-07-30T06:38:43;20.00;99.90
60868;DHT22;46702;48.370;10.794;2023-07-30T06:41:09;20.10;99.90
60868;DHT22;46702;48.370;10.794;2023-07-30T06:43:34;20.20;99.90
60868;DHT22;46702;48.370;10.794;2023-07-30T06:46:00;20.30;99.90
60868;DHT22;46702;48.370;10.794;2023-07-30T06:48:26;20.50;99.90
60868;DHT22;46702;48.370;10.794;2023-07-30T06:50:51;20.60;99.90
60868;DHT22;46702;48.370;10.794;2023-07-30T06:53:17;20.50;99.90
60868;DHT22;46702;48.370;10.794;2023-07-30T06:55:43;20.50;99.90
60868;DHT22;46702;48.370;10.794;2023-07-30T06:58:09;20.60;99.90
60868;DHT22;46702;48.370;10.794;2023-07-30T07:00:35;20.50;99.90
60868;DHT22;46702;48.370;10.794;2023-07-30T07:03:00;20.50;99.90
60868;DHT22;46702;48.370;10.794;2023-07-30T07:05:26;20.50;99.90
60868;DHT22;46702;48.370;10.794;2023-07-30T07:07:51;20.60;99.90
60868;DHT22;46702;48.370;10.794;2023-07-30T07:10:17;20.70;99.90
60868;DHT22;46702;48.370;10.794;2023-07-30T07:12:43;20.80;99.90
60868;DHT22;46702;48.370;10.794;2023-07-30T07:15:08;20.80;99.90
60868;DHT22;46702;48.370;10.794;2023-07-30T07:17:34;20.90;99.90
60868;DHT22;46702;48.370;10.794;2023-07-30T07:20:00;20.90;99.90
60868;DHT22;46702;48.370;10.794;2023-07-30T07:22:26;21.00;99.90
60868;DHT22;46702;48.370;10.794;2023-07-30T07:24:53;21.20;99.90
60868;DHT22;46702;48.370;10.794;2023-07-30T07:27:19;21.20;99.90
60868;DHT22;46702;48.370;10.794;2023-07-30T07:29:44;21.30;99.90
60868;DHT22;46702;48.370;10.794;2023-07-30T07:32:10;21.40;99.90
60868;DHT22;46702;48.370;10.794;2023-07-30T07:34:36;21.30;99.90
60868;DHT22;46702;48.370;10.794;2023-07-30T07:37:02;21.20;99.90
60868;DHT22;46702;48.370;10.794;2023-07-30T07:39:28;21.40;99.90
60868;DHT22;46702;48.370;10.794;2023-07-30T07:41:54;21.60;99.90
60868;DHT22;46702;48.370;10.794;2023-07-30T07:44:20;21.60;99.90
60868;DHT22;46702;48.370;10.794;2023-07-30T07:46:47;21.70;99.90
60868;DHT22;46702;48.370;10.794;2023-07-30T07:49:12;22.10;99.90
60868;DHT22;46702;48.370;10.794;2023-07-30T07:51:38;22.20;99.90
60868;DHT22;46702;48.370;10.794;2023-07-30T07:54:03;22.10;99.90
60868;DHT22;46702;48.370;10.794;2023-07-30T07:56:30;22.10;99.90
60868;DHT22;46702;48.370;10.794;2023-07-30T07:58:57;22.00;99.90
60868;DHT22;46702;48.370;10.794;2023-07-30T08:01:22;22.10;99.90
60868;DHT22;46702;48.370;10.794;2023-07-30T08:03:48;22.00;99.90
60868;DHT22;46702;48.370;10.794;2023-07-30T08:06:13;21.80;99.90
60868;DHT22;46702;48.370;10.794;2023-07-30T08:08:39;21.80;99.90
60868;DHT22;46702;48.370;10.794;2023-07-30T08:11:08;21.70;99.90
60868;DHT22;46702;48.370;10.794;2023-07-30T08:13:35;21.60;99.90
60868;DHT22;46702;48.370;10.794;2023-07-30T08:16:01;21.60;99.90
60868;DHT22;46702;48.370;10.794;2023-07-30T08:18:27;21.50;99.90
60868;DHT22;46702;48.370;10.794;2023-07-30T08:20:53;21.40;99.90
60868;DHT22;46702;48.370;10.794;2023-07-30T08:23:19;21.50;99.90
60868;DHT22;46702;48.370;10.794;2023-07-30T08:25:44;21.60;99.90
60868;DHT22;46702;48.370;10.794;2023-07-30T08:28:10;21.60;99.90
60868;DHT22;46702;48.370;10.794;2023-07-30T08:30:35;21.80;99.90
60868;DHT22;46702;48.370;10.794;2023-07-30T08:33:01;21.90;99.90
60868;DHT22;46702;48.370;10.794;2023-07-30T08:35:26;22.10;99.90
60868;DHT22;46702;48.370;10.794;2023-07-30T08:37:52;22.00;99.90
60868;DHT22;46702;48.370;10.794;2023-07-30T08:40:18;22.00;99.90
60868;DHT22;46702;48.370;10.794;2023-07-30T08:42:45;21.70;99.90
60868;DHT22;46702;48.370;10.794;2023-07-30T08:45:11;21.60;99.90
60868;DHT22;46702;48.370;10.794;2023-07-30T08:47:39;21.70;99.90
60868;DHT22;46702;48.370;10.794;2023-07-30T08:50:05;21.80;99.90
60868;DHT22;46702;48.370;10.794;2023-07-30T08:52:32;22.10;99.90
60868;DHT22;46702;48.370;10.794;2023-07-30T08:55:00;22.20;99.90
60868;DHT22;46702;48.370;10.794;2023-07-30T08:57:29;22.40;99.90
60868;DHT22;46702;48.370;10.794;2023-07-30T09:00:11;22.70;99.90
60868;DHT22;46702;48.370;10.794;2023-07-30T09:02:53;22.90;99.90
60868;DHT22;46702;48.370;10.794;2023-07-30T09:05:20;23.20;99.90
60868;DHT22;46702;48.370;10.794;2023-07-30T09:07:46;23.10;99.90
60868;DHT22;46702;48.370;10.794;2023-07-30T09:10:12;23.00;99.90
60868;DHT22;46702;48.370;10.794;2023-07-30T09:12:39;22.90;99.90
60868;DHT22;46702;48.370;10.794;2023-07-30T09:15:05;22.90;99.90
60868;DHT22;46702;48.370;10.794;2023-07-30T09:17:31;22.80;99.90
60868;DHT22;46702;48.370;10.794;2023-07-30T09:19:59;23.00;99.90
60868;DHT22;46702;48.370;10.794;2023-07-30T09:22:33;23.10;99.90
60868;DHT22;46702;48.370;10.794;2023-07-30T09:25:02;23.20;99.90
60868;DHT22;46702;48.370;10.794;2023-07-30T09:27:28;23.00;99.90
60868;DHT22;46702;48.370;10.794;2023-07-30T09:29:55;22.80;99.90
60868;DHT22;46702;48.370;10.794;2023-07-30T09:32:26;22.90;99.90
60868;DHT22;46702;48.370;10.794;2023-07-30T09:34:51;23.10;99.90
60868;DHT22;46702;48.370;10.794;2023-07-30T09:37:17;22.90;99.90
60868;DHT22;46702;48.370;10.794;2023-07-30T09:39:43;22.60;99.90
60868;DHT22;46702;48.370;10.794;2023-07-30T09:42:08;22.70;99.90
60868;DHT22;46702;48.370;10.794;2023-07-30T09:44:36;22.40;99.90
60868;DHT22;46702;48.370;10.794;2023-07-30T09:47:03;22.40;99.90
60868;DHT22;46702;48.370;10.794;2023-07-30T09:49:31;22.50;99.90
60868;DHT22;46702;48.370;10.794;2023-07-30T09:52:00;22.50;99.90
60868;DHT22;46702;48.370;10.794;2023-07-30T09:54:26;22.40;99.90
60868;DHT22;46702;48.370;10.794;2023-07-30T09:56:52;22.40;99.90
60868;DHT22;46702;48.370;10.794;2023-07-30T09:59:18;22.60;99.90
60868;DHT22;46702;48.370;10.794;2023-07-30T10:01:46;23.00;99.90
60868;DHT22;46702;48.370;10.794;2023-07-30T10:04:15;22.90;99.90
60868;DHT22;46702;48.370;10.794;2023-07-30T10:07:16;22.80;99.90
60868;DHT22;46702;48.370;10.794;2023-07-30T10:09:53;22.90;99.90
60868;DHT22;46702;48.370;10.794;2023-07-30T10:12:27;21.90;99.90
60868;DHT22;46702;48.370;10.794;2023-07-30T10:14:57;21.00;99.90
60868;DHT22;46702;48.370;10.794;2023-07-30T10:17:23;20.60;99.90
60868;DHT22;46702;48.370;10.794;2023-07-30T10:19:54;20.40;99.90
60868;DHT22;46702;48.370;10.794;2023-07-30T10:22:38;20.10;99.90
60868;DHT22;46702;48.370;10.794;2023-07-30T10:25:15;19.90;99.90
60868;DHT22;46702;48.370;10.794;2023-07-30T10:27:48;19.80;99.90
60868;DHT22;46702;48.370;10.794;2023-07-30T10:30:16;19.80;99.90
60868;DHT22;46702;48.370;10.794;2023-07-30T10:35:42;19.70;99.90
60868;DHT22;46702;48.370;10.794;2023-07-30T10:41:09;20.50;99.90
60868;DHT22;46702;48.370;10.794;2023-07-30T10:43:43;20.80;99.90
60868;DHT22;46702;48.370;10.794;2023-07-30T10:46:17;20.60;99.90
60868;DHT22;46702;48.370;10.794;2023-07-30T10:48:44;20.20;99.90
60868;DHT22;46702;48.370;10.794;2023-07-30T10:51:16;20.00;99.90
60868;DHT22;46702;48.370;10.794;2023-07-30T10:53:45;19.70;99.90
60868;DHT22;46702;48.370;10.794;2023-07-30T10:56:12;19.70;99.90
60868;DHT22;46702;48.370;10.794;2023-07-30T10:58:39;19.40;99.90
60868;DHT22;46702;48.370;10.794;2023-07-30T11:01:08;19.50;99.90
60868;DHT22;46702;48.370;10.794;2023-07-30T11:03:47;19.60;99.90
60868;DHT22;46702;48.370;10.794;2023-07-30T11:06:27;19.60;99.90
60868;DHT22;46702;48.370;10.794;2023-07-30T11:08:53;19.80;99.90
60868;DHT22;46702;48.370;10.794;2023-07-30T11:11:19;19.90;99.90
60868;DHT22;46702;48.370;10.794;2023-07-30T11:13:46;20.20;99.90
60868;DHT22;46702;48.370;10.794;2023-07-30T11:16:13;20.60;99.90
60868;DHT22;46702;48.370;10.794;2023-07-30T11:18:41;20.60;99.90
60868;DHT22;46702;48.370;10.794;2023-07-30T11:21:14;20.70;99.90
60868;DHT22;46702;48.370;10.794;2023-07-30T11:23:41;21.10;99.90
60868;DHT22;46702;48.370;10.794;2023-07-30T11:26:08;21.30;99.90
60868;DHT22;46702;48.370;10.794;2023-07-30T11:28:36;21.30;99.90
60868;DHT22;46702;48.370;10.794;2023-07-30T11:33:43;21.00;99.90
60868;DHT22;46702;48.370;10.794;2023-07-30T11:36:18;20.80;99.90
60868;DHT22;46702;48.370;10.794;2023-07-30T11:38:45;20.70;99.90
60868;DHT22;46702;48.370;10.794;2023-07-30T11:41:20;20.60;99.90
60868;DHT22;46702;48.370;10.794;2023-07-30T11:43:48;20.60;99.90
60868;DHT22;46702;48.370;10.794;2023-07-30T11:46:18;20.80;99.90
60868;DHT22;46702;48.370;10.794;2023-07-30T11:48:50;20.90;99.90
60868;DHT22;46702;48.370;10.794;2023-07-30T11:51:27;21.10;99.90
60868;DHT22;46702;48.370;10.794;2023-07-30T11:56:43;21.80;99.90
60868;DHT22;46702;48.370;10.794;2023-07-30T11:59:12;21.90;99.90
60868;DHT22;46702;48.370;10.794;2023-07-30T12:01:54;22.10;99.90
60868;DHT22;46702;48.370;10.794;2023-07-30T12:04:46;22.00;99.90
60868;DHT22;46702;48.370;10.794;2023-07-30T12:07:22;21.90;99.90
60868;DHT22;46702;48.370;10.794;2023-07-30T12:09:49;21.40;99.90
60868;DHT22;46702;48.370;10.794;2023-07-30T12:12:15;21.10;99.90
60868;DHT22;46702;48.370;10.794;2023-07-30T12:14:53;21.00;99.90
60868;DHT22;46702;48.370;10.794;2023-07-30T12:17:22;21.00;99.90
60868;DHT22;46702;48.370;10.794;2023-07-30T12:19:49;21.00;99.90
60868;DHT22;46702;48.370;10.794;2023-07-30T12:22:24;20.80;99.90
60868;DHT22;46702;48.370;10.794;2023-07-30T12:25:43;20.60;99.90
60868;DHT22;46702;48.370;10.794;2023-07-30T12:28:01;20.00;99.90
60868;DHT22;46702;48.370;10.794;2023-07-30T12:30:27;19.60;99.90
60868;DHT22;46702;48.370;10.794;2023-07-30T12:32:54;19.50;99.90
60868;DHT22;46702;48.370;10.794;2023-07-30T12:35:42;19.70;99.90
60868;DHT22;46702;48.370;10.794;2023-07-30T12:38:11;20.00;99.90
60868;DHT22;46702;48.370;10.794;2023-07-30T12:40:52;20.20;99.90
60868;DHT22;46702;48.370;10.794;2023-07-30T12:43:30;20.60;99.90
60868;DHT22;46702;48.370;10.794;2023-07-30T12:46:13;20.70;99.90
60868;DHT22;46702;48.370;10.794;2023-07-30T12:48:45;20.70;99.90
60868;DHT22;46702;48.370;10.794;2023-07-30T12:51:18;20.70;99.90
60868;DHT22;46702;48.370;10.794;2023-07-30T12:54:03;20.80;99.90
60868;DHT22;46702;48.370;10.794;2023-07-30T12:56:32;21.30;99.90
60868;DHT22;46702;48.370;10.794;2023-07-30T12:59:01;21.60;99.90
60868;DHT22;46702;48.370;10.794;2023-07-30T13:01:36;21.60;99.90
60868;DHT22;46702;48.370;10.794;2023-07-30T13:04:08;21.90;99.90
60868;DHT22;46702;48.370;10.794;2023-07-30T13:07:03;21.60;99.90
60868;DHT22;46702;48.370;10.794;2023-07-30T13:09:42;21.50;99.90
60868;DHT22;46702;48.370;10.794;2023-07-30T13:12:16;21.50;99.90
60868;DHT22;46702;48.370;10.794;2023-07-30T13:14:42;21.90;99.90
60868;DHT22;46702;48.370;10.794;2023-07-30T13:17:14;22.20;99.90
60868;DHT22;46702;48.370;10.794;2023-07-30T13:19:45;22.30;99.90
60868;DHT22;46702;48.370;10.794;2023-07-30T13:22:17;22.40;99.90
60868;DHT22;46702;48.370;10.794;2023-07-30T13:24:43;22.70;99.90
60868;DHT22;46702;48.370;10.794;2023-07-30T13:27:16;22.60;99.90
60868;DHT22;46702;48.370;10.794;2023-07-30T13:29:42;22.60;99.90
60868;DHT22;46702;48.370;10.794;2023-07-30T13:32:17;22.60;99.90
60868;DHT22;46702;48.370;10.794;2023-07-30T13:34:43;22.50;99.90
60868;DHT22;46702;48.370;10.794;2023-07-30T13:37:16;22.50;99.90
60868;DHT22;46702;48.370;10.794;2023-07-30T13:39:45;22.60;99.90
60868;DHT22;46702;48.370;10.794;2023-07-30T13:42:11;22.60;99.90
60868;DHT22;46702;48.370;10.794;2023-07-30T13:44:43;22.90;99.90
60868;DHT22;46702;48.370;10.794;2023-07-30T13:47:15;22.90;99.90
60868;DHT22;46702;48.370;10.794;2023-07-30T13:49:41;22.80;99.90
60868;DHT22;46702;48.370;10.794;2023-07-30T13:52:20;23.10;99.90
60868;DHT22;46702;48.370;10.794;2023-07-30T13:55:06;23.30;99.90
60868;DHT22;46702;48.370;10.794;2023-07-30T13:57:42;23.30;99.90
60868;DHT22;46702;48.370;10.794;2023-07-30T14:00:12;23.50;99.90
60868;DHT22;46702;48.370;10.794;2023-07-30T14:02:51;23.40;99.90
60868;DHT22;46702;48.370;10.794;2023-07-30T14:05:37;23.20;99.90
60868;DHT22;46702;48.370;10.794;2023-07-30T14:08:03;23.10;99.90
60868;DHT22;46702;48.370;10.794;2023-07-30T14:10:32;23.10;99.90
60868;DHT22;46702;48.370;10.794;2023-07-30T14:13:00;23.10;99.90
60868;DHT22;46702;48.370;10.794;2023-07-30T14:15:26;23.30;99.90
60868;DHT22;46702;48.370;10.794;2023-07-30T14:17:52;23.30;99.90
60868;DHT22;46702;48.370;10.794;2023-07-30T14:20:18;23.40;99.90
60868;DHT22;46702;48.370;10.794;2023-07-30T14:22:44;23.30;99.90
60868;DHT22;46702;48.370;10.794;2023-07-30T14:25:12;23.40;99.90
60868;DHT22;46702;48.370;10.794;2023-07-30T14:27:41;23.60;99.90
60868;DHT22;46702;48.370;10.794;2023-07-30T14:30:08;23.40;99.90
60868;DHT22;46702;48.370;10.794;2023-07-30T14:32:34;23.20;99.90
60868;DHT22;46702;48.370;10.794;2023-07-30T14:35:00;23.50;99.90
60868;DHT22;46702;48.370;10.794;2023-07-30T14:37:26;23.10;99.90
60868;DHT22;46702;48.370;10.794;2023-07-30T14:39:51;23.20;99.90
60868;DHT22;46702;48.370;10.794;2023-07-30T14:42:17;23.40;99.90
60868;DHT22;46702;48.370;10.794;2023-07-30T14:44:49;23.40;99.90
60868;DHT22;46702;48.370;10.794;2023-07-30T14:47:14;23.40;99.90
60868;DHT22;46702;48.370;10.794;2023-07-30T14:49:40;22.90;99.90
60868;DHT22;46702;48.370;10.794;2023-07-30T14:52:07;22.80;99.90
60868;DHT22;46702;48.370;10.794;2023-07-30T14:54:33;22.90;99.90
60868;DHT22;46702;48.370;10.794;2023-07-30T14:56:59;23.10;99.90
60868;DHT22;46702;48.370;10.794;2023-07-30T14:59:26;23.20;99.90
60868;DHT22;46702;48.370;10.794;2023-07-30T15:01:51;22.90;99.90
60868;DHT22;46702;48.370;10.794;2023-07-30T15:04:23;22.90;99.90
60868;DHT22;46702;48.370;10.794;2023-07-30T15:06:51;23.30;99.90
60868;DHT22;46702;48.370;10.794;2023-07-30T15:09:20;23.70;99.90
60868;DHT22;46702;48.370;10.794;2023-07-30T15:11:46;23.80;99.90
60868;DHT22;46702;48.370;10.794;2023-07-30T15:14:11;23.80;99.90
60868;DHT22;46702;48.370;10.794;2023-07-30T15:16:37;24.00;99.90
60868;DHT22;46702;48.370;10.794;2023-07-30T15:19:03;24.00;99.90
60868;DHT22;46702;48.370;10.794;2023-07-30T15:21:30;23.90;99.90
60868;DHT22;46702;48.370;10.794;2023-07-30T15:23:56;24.20;99.90
60868;DHT22;46702;48.370;10.794;2023-07-30T15:26:24;24.00;99.90
60868;DHT22;46702;48.370;10.794;2023-07-30T15:28:49;23.60;99.90
60868;DHT22;46702;48.370;10.794;2023-07-30T15:31:15;23.40;99.90